Sioux Falls, SD (57104)

02:42 AM CST del 22 Febbraio 2017 (GMT -0600)
MSSBS2 | | Change Station
Avvisi attivi: Winter Storm Watch

Alt. 1472 ft 43.54 °N, 96.73 °W | Updated 16 minutes ago

Clear
Sereno
50.0 °F
Sembra 50.0 °F
N
0.0
Vento Variabile Vento da Nord

Oggi
Massima -- | Minima -- °F
--% Possibilità di precip.
Ieri
Massima -- | Minima -- °F
Precip. -- in
Pressione 29.63 in
Visibilità 10.0 miglia
Nuvole Sereno
Punto di rugiada 39 °F
Umidità 66%
Piovosità in
Spessore del manto nevoso Non disponibile.
7:14 AM 6:07 PM
Luna calante, 19% visible
METAR KFSD 220756Z AUTO 21005KT 10SM CLR 05/03 A2962 RMK AO2 SLP032 T00500028
Pressione 29.63 in
Visibilità 10.0 miglia
Nuvole Sereno
Punto di rugiada 39 °F
Umidità 66%
Piovosità in
Spessore del manto nevoso Non disponibile.
7:14 AM 6:07 PM
Luna calante, 19% visible
METAR KFSD 220756Z AUTO 21005KT 10SM CLR 05/03 A2962 RMK AO2 SLP032 T00500028

Get Your Daily Forecast Email!

Thanks for signing up!

Be on the lookout for a verification email in your inbox.

You'll start receiving the daily forecast at 8 AM.

×

10-Day Weather Forecast

Almanac

Astronomia

Feb. 22, 2017 Alba Tramonto
Ora attuale
Crepuscolo civile
Crepuscolo nautico
Crepuscolo astronomico
Luna
Estensione della luce visibile
Lunghezza del giorno
Tomorrow will be .
, % of the Moon is Illuminated

Gli estremi di oggi

State Highs State Lows

Community

WunderPhotos

Upload Photos

1,962,540 foto caricate!

WunderBlog® & News

Nearby

Qualità dell'aria

  Qualità dell'aria Indice AQ Inquinante
Not available.

Profondità neve

Stazione Profondità Altitudine

Attività sismica

Città  Distanza Mag. Data & Ora
Minimo Magnitudo Mostrato è 2.5.

Temperature delle acque costiere

Località Temperatura

Stations

Stazioni meteo nelle vicinanze

Ubicazione della stazione Temp. Raffreddamento del vento Punto di rugiada Umidità Vento Precip. Alt. Aggiornato Tipo
                   

Watches & Warnings

Winter Storm Watch
Issued: 22:11 CST Feb. 21, 2017 – National Weather Service

... Winter Storm Watch remains in effect from Thursday evening
through Friday afternoon...

* timing... rain will begin mixing with snow midday Thursday,
then change entirely to snowfall Thursday evening. Snow will
continue into Friday, before gradually tapering off in the
afternoon.

* Accumulations... storm total snow accumulations of 6 to 10
inches are possible.

* Wind and visibility... winds will increase from the north
around 20 to 30 mph on Thursday night and Friday. Visibility
is expected to be reduced to less than a half mile at times
while snow is falling.

Precautionary/preparedness actions...

A Winter Storm Watch means there is a potential for significant
snow... sleet... or ice accumulations that may impact travel.
Continue to monitor the latest forecasts.